Time;durP1;ratioP1;P1;durP2;ratioP2;P2;SDS_P1;SDS_P2;PMS_P1;PMS_P2;Temp;Humidity;BMP_temperature;BMP_pressure;BME280_temperature;BME280_humidity;BME280_pressure;Samples;Min_cycle;Max_cycle;Signal;HPM_P1;HPM_P2
2022/09/22 00:01:28;;;;;;;8.95;7.08;;;;;;;8.42;81.29;100613.01;1827662;78;20872;-86
2022/09/22 00:03:58;;;;;;;12.33;6.42;;;;;;;8.39;81.12;100611.84;1827733;77;21286;-88
2022/09/22 00:06:28;;;;;;;9.30;6.55;;;;;;;8.35;80.88;100611.14;1825638;78;20905;-87
2022/09/22 00:09:01;;;;;;;8.63;6.75;;;;;;;8.32;80.81;100610.47;1825809;78;20899;-88
2022/09/22 00:11:31;;;;;;;10.13;6.47;;;;;;;8.25;80.73;100606.02;1825705;78;21360;-88
2022/09/22 00:14:05;;;;;;;7.55;6.67;;;;;;;8.19;80.84;100603.70;1825422;78;20867;-88
2022/09/22 00:16:39;;;;;;;8.50;6.80;;;;;;;8.15;80.75;100603.00;1825364;78;20979;-89
2022/09/22 00:19:10;;;;;;;7.25;6.58;;;;;;;8.10;80.70;100603.23;1752733;80;20860;-88
2022/09/22 00:21:37;;;;;;;7.37;6.50;;;;;;;8.06;80.73;100603.47;1783943;80;20968;-89
2022/09/22 00:24:05;;;;;;;7.85;6.30;;;;;;;8.02;80.85;100594.92;1783930;80;20958;-89
2022/09/22 00:26:33;;;;;;;10.68;7.15;;;;;;;7.97;80.95;100595.63;1783762;80;20996;-89
2022/09/22 00:29:00;;;;;;;8.20;6.50;;;;;;;7.93;81.07;100585.41;1783445;80;21098;-89
2022/09/22 00:31:27;;;;;;;8.53;6.50;;;;;;;7.86;81.16;100584.87;1783366;80;21367;-89
2022/09/22 00:33:53;;;;;;;7.60;6.60;;;;;;;7.83;81.36;100585.03;1783642;80;20923;-89
2022/09/22 00:36:24;;;;;;;9.85;6.83;;;;;;;7.79;81.57;100590.02;1783471;80;20945;-89
2022/09/22 00:38:51;;;;;;;7.70;6.22;;;;;;;7.78;81.58;100593.52;1783534;80;20980;-88
2022/09/22 00:41:23;;;;;;;8.38;6.47;;;;;;;7.76;81.58;100597.54;1783416;80;21258;-89
2022/09/22 00:44:11;;;;;;;7.33;6.53;;;;;;;7.73;81.48;100607.27;1782530;80;21016;-89
2022/09/22 00:46:39;;;;;;;9.35;7.10;;;;;;;7.70;81.36;100606.97;1735776;82;20939;-89
2022/09/22 00:49:05;;;;;;;11.22;7.15;;;;;;;7.65;81.30;100607.19;1735898;82;20907;-87
2022/09/22 00:51:35;;;;;;;7.83;6.10;;;;;;;7.63;81.45;100604.27;1736033;82;21492;-87
2022/09/22 00:54:05;;;;;;;7.58;6.70;;;;;;;7.60;81.47;100602.66;1735952;82;21872;-89
2022/09/22 00:56:40;;;;;;;9.25;7.30;;;;;;;7.58;81.48;100607.53;1735883;82;20959;-88
2022/09/22 00:59:12;;;;;;;8.88;6.65;;;;;;;7.57;81.51;100602.78;1734710;81;20876;-89
2022/09/22 01:01:39;;;;;;;9.10;6.95;;;;;;;7.55;81.59;100605.92;1735755;82;20939;-88
2022/09/22 01:04:06;;;;;;;7.22;6.53;;;;;;;7.53;81.63;100606.45;1735909;82;21439;-89
2022/09/22 01:06:33;;;;;;;7.12;6.42;;;;;;;7.53;81.66;100610.37;1736096;81;21143;-87
2022/09/22 01:09:00;;;;;;;10.45;7.12;;;;;;;7.50;81.68;100613.13;1735741;82;20927;-89
2022/09/22 01:11:28;;;;;;;7.10;6.40;;;;;;;7.49;81.85;100616.64;1735819;81;20899;-88
2022/09/22 01:14:31;;;;;;;9.45;7.28;;;;;;;7.46;82.08;100615.50;1735775;82;20931;-88
2022/09/22 01:17:09;;;;;;;7.03;5.97;;;;;;;7.46;82.15;100623.33;1735094;82;21029;-87
2022/09/22 01:20:02;;;;;;;9.13;6.75;;;;;;;7.45;82.28;100616.43;1738920;79;21102;-87
2022/09/22 01:22:58;;;;;;;11.03;9.08;;;;;;;7.44;82.27;100619.47;1737936;79;21470;-87
2022/09/22 01:25:51;;;;;;;10.60;9.30;;;;;;;7.44;82.72;100617.33;1736040;82;21026;-86
2022/09/22 01:28:32;;;;;;;11.50;7.87;;;;;;;7.43;83.24;100611.27;1736038;82;20907;-87
2022/09/22 01:31:14;;;;;;;13.48;9.38;;;;;;;7.46;84.08;100620.72;1734426;81;20934;-89
2022/09/22 01:33:57;;;;;;;12.70;8.85;;;;;;;7.46;84.47;100617.64;1735870;82;21166;-89
2022/09/22 01:36:49;;;;;;;9.20;8.20;;;;;;;7.49;84.78;100616.64;1735499;82;20990;-88
2022/09/22 01:39:21;;;;;;;9.30;7.67;;;;;;;7.52;84.82;100624.34;1735727;82;20939;-87
2022/09/22 01:42:02;;;;;;;8.93;8.00;;;;;;;7.55;84.70;100625.49;1732035;82;20935;-89
2022/09/22 01:45:03;;;;;;;8.10;7.22;;;;;;;7.55;84.46;100624.19;1742392;80;21057;-87
2022/09/22 01:47:46;;;;;;;10.18;7.70;;;;;;;7.58;84.34;100627.98;1782781;80;20927;-89
2022/09/22 01:50:18;;;;;;;10.63;7.75;;;;;;;7.59;84.04;100634.03;1782476;80;21397;-89
2022/09/22 01:52:46;;;;;;;15.58;12.40;;;;;;;7.58;83.63;100638.85;1821515;78;20891;-89
2022/09/22 01:55:20;;;;;;;34.65;23.60;;;;;;;7.56;83.24;100631.55;1821699;78;20908;-89
2022/09/22 01:58:11;;;;;;;31.12;20.35;;;;;;;7.54;83.01;100634.72;1821524;78;20962;-89
2022/09/22 02:00:43;;;;;;;52.73;34.60;;;;;;;7.53;82.86;100636.92;1821496;78;21234;-89
2022/09/22 02:03:20;;;;;;;47.08;33.92;;;;;;;7.51;82.70;100644.81;1821433;78;21345;-89
2022/09/22 02:05:58;;;;;;;64.60;44.45;;;;;;;7.50;82.62;100648.36;1821487;78;21033;-88
2022/09/22 02:08:50;;;;;;;57.03;40.28;;;;;;;7.48;82.58;100642.36;1821663;78;20844;-90
2022/09/22 02:11:17;;;;;;;58.17;41.45;;;;;;;7.46;82.43;100648.11;1821657;78;21381;-88
2022/09/22 02:13:44;;;;;;;59.53;46.30;;;;;;;7.42;82.47;100643.95;1821714;78;21374;-89
2022/09/22 02:16:12;;;;;;;58.70;44.08;;;;;;;7.40;82.81;100648.39;1822268;78;21026;-90
2022/09/22 02:18:57;;;;;;;66.45;48.75;;;;;;;7.40;82.95;100654.48;1821562;78;21428;-89
2022/09/22 02:21:24;;;;;;;41.42;33.25;;;;;;;7.39;82.91;100646.24;1821544;78;21455;-89
2022/09/22 02:23:50;;;;;;;51.40;38.53;;;;;;;7.39;82.81;100650.16;1821624;78;20943;-89
2022/09/22 02:26:23;;;;;;;52.67;39.58;;;;;;;7.38;82.68;100649.78;1821691;78;21807;-88
2022/09/22 02:28:59;;;;;;;43.13;34.63;;;;;;;7.35;82.55;100653.82;1821038;78;21595;-88
2022/09/22 02:31:27;;;;;;;39.67;27.35;;;;;;;7.34;82.45;100656.52;1821692;78;20907;-88
2022/09/22 02:33:54;;;;;;;32.03;23.40;;;;;;;7.32;82.27;100655.74;1821757;78;20940;-89
2022/09/22 02:36:47;;;;;;;19.57;16.12;;;;;;;7.26;82.16;100651.17;1824643;77;20970;-87
2022/09/22 02:39:25;;;;;;;20.15;14.43;;;;;;;7.22;82.11;100654.83;1822986;77;21281;-88
2022/09/22 02:42:15;;;;;;;17.98;14.75;;;;;;;7.17;82.15;100659.42;1821952;78;21384;-88
2022/09/22 02:44:56;;;;;;;18.07;14.00;;;;;;;7.15;82.31;100661.71;1808383;78;20912;-88
2022/09/22 02:47:37;;;;;;;17.15;15.32;;;;;;;7.13;82.55;100658.33;1821469;78;20975;-89
2022/09/22 02:50:08;;;;;;;28.98;16.10;;;;;;;7.12;82.77;100671.83;1821476;78;20907;-90
2022/09/22 02:52:36;;;;;;;19.77;15.58;;;;;;;7.11;82.87;100662.77;1821621;78;21215;-89
2022/09/22 02:55:03;;;;;;;17.67;13.30;;;;;;;7.10;83.08;100663.69;1821553;78;21437;-89
2022/09/22 02:57:29;;;;;;;14.78;12.68;;;;;;;7.09;83.28;100665.43;1821599;78;21444;-89
2022/09/22 02:59:56;;;;;;;16.60;11.75;;;;;;;7.10;83.46;100654.56;1821537;78;20879;-90
2022/09/22 03:02:22;;;;;;;15.30;12.30;;;;;;;7.09;83.52;100657.61;1822611;78;20939;-89
2022/09/22 03:04:50;;;;;;;16.80;12.13;;;;;;;7.08;83.54;100655.92;1821830;78;21222;-89
2022/09/22 03:07:17;;;;;;;19.15;15.10;;;;;;;7.06;83.45;100659.90;1821682;78;20883;-89
2022/09/22 03:09:44;;;;;;;23.60;17.23;;;;;;;7.03;83.36;100656.14;1821357;78;20936;-90
2022/09/22 03:12:10;;;;;;;14.98;13.48;;;;;;;7.03;83.35;100653.99;1821569;78;20969;-86
2022/09/22 03:14:37;;;;;;;16.67;12.95;;;;;;;7.01;83.34;100657.13;1821508;78;20883;-87
2022/09/22 03:17:05;;;;;;;19.48;11.97;;;;;;;6.97;83.25;100656.41;1821672;78;21221;-86
2022/09/22 03:19:32;;;;;;;16.77;12.80;;;;;;;6.95;83.16;100656.92;1821375;78;20867;-86
2022/09/22 03:21:58;;;;;;;17.85;12.60;;;;;;;6.93;83.22;100652.23;1821478;78;20903;-85
2022/09/22 03:24:25;;;;;;;18.70;12.45;;;;;;;6.93;83.38;100650.09;1821269;78;20899;-87
2022/09/22 03:26:52;;;;;;;14.47;10.85;;;;;;;6.91;83.59;100651.45;1821583;78;20868;-86
2022/09/22 03:29:18;;;;;;;15.98;11.93;;;;;;;6.91;83.78;100653.22;1821465;78;21268;-87
2022/09/22 03:31:45;;;;;;;16.12;11.80;;;;;;;6.90;83.96;100651.54;1821608;78;20871;-85
2022/09/22 03:34:13;;;;;;;13.32;11.20;;;;;;;6.90;84.09;100655.45;1821944;78;20903;-87
2022/09/22 03:36:41;;;;;;;14.23;10.10;;;;;;;6.90;84.28;100653.69;1821776;78;20867;-87
2022/09/22 03:39:09;;;;;;;16.15;11.48;;;;;;;6.91;84.56;100648.00;1822140;78;20875;-87
2022/09/22 03:41:36;;;;;;;15.72;10.40;;;;;;;6.91;84.78;100644.09;1821906;78;21105;-87
2022/09/22 03:44:04;;;;;;;12.50;9.55;;;;;;;6.93;84.89;100647.02;1821711;78;21528;-87
2022/09/22 03:46:33;;;;;;;13.85;11.63;;;;;;;6.93;84.85;100649.63;1821627;78;21362;-86
2022/09/22 03:49:02;;;;;;;16.73;12.20;;;;;;;6.94;84.84;100653.11;1821633;78;20911;-86
2022/09/22 03:51:33;;;;;;;18.17;11.50;;;;;;;6.93;84.78;100653.53;1823419;78;20884;-85
2022/09/22 03:53:57;;;;;;;16.77;11.70;;;;;;;6.92;84.75;100651.02;1824065;77;21140;-86
2022/09/22 03:56:24;;;;;;;19.37;12.80;;;;;;;6.92;84.73;100651.86;1822514;77;20922;-86
2022/09/22 03:58:50;;;;;;;17.62;12.07;;;;;;;6.93;84.61;100655.30;1821841;78;20963;-85
2022/09/22 04:01:17;;;;;;;20.97;12.93;;;;;;;6.92;84.53;100654.47;1821906;78;21397;-86
2022/09/22 04:03:43;;;;;;;22.05;11.08;;;;;;;6.93;84.57;100657.45;1821718;78;20947;-86
2022/09/22 04:06:11;;;;;;;18.60;11.22;;;;;;;6.94;84.61;100655.71;1821722;78;21299;-86
2022/09/22 04:08:38;;;;;;;22.22;10.98;;;;;;;6.94;84.68;100656.55;1821595;78;20962;-85
2022/09/22 04:11:05;;;;;;;20.82;12.20;;;;;;;6.97;84.72;100659.48;1821796;78;20919;-87
2022/09/22 04:13:34;;;;;;;15.48;10.70;;;;;;;7.00;84.82;100656.72;1821566;78;20927;-86
2022/09/22 04:16:04;;;;;;;16.70;11.30;;;;;;;7.03;84.88;100657.91;1790369;78;20955;-86
2022/09/22 04:18:33;;;;;;;22.10;12.98;;;;;;;7.05;84.99;100658.69;1822058;78;21899;-87
2022/09/22 04:21:00;;;;;;;15.48;11.97;;;;;;;7.09;85.16;100657.61;1822484;78;20911;-86
2022/09/22 04:23:26;;;;;;;18.85;12.03;;;;;;;7.14;85.37;100660.87;1822120;78;20907;-86
2022/09/22 04:32:13;;;;;;;16.35;12.18;;;;;;;7.41;86.05;100660.06;1829241;78;21368;-87
2022/09/22 04:34:40;;;;;;;19.80;12.85;;;;;;;7.57;86.27;100668.02;1831327;78;20911;-87
2022/09/22 04:37:06;;;;;;;18.77;12.03;;;;;;;7.72;86.40;100666.94;1831450;78;20860;-87
2022/09/22 04:39:34;;;;;;;17.35;12.45;;;;;;;7.87;86.50;100663.13;1791865;80;20959;-85
2022/09/22 04:42:03;;;;;;;19.17;11.78;;;;;;;8.03;86.43;100667.14;1816796;78;20971;-85
2022/09/22 04:44:30;;;;;;;14.60;11.43;;;;;;;8.18;86.30;100672.52;1831353;78;22080;-84
2022/09/22 04:46:56;;;;;;;13.05;11.10;;;;;;;8.33;86.08;100679.61;1791947;80;21081;-87
2022/09/22 04:49:25;;;;;;;13.68;11.35;;;;;;;8.47;85.91;100678.51;1772510;80;20935;-86
2022/09/22 04:51:53;;;;;;;18.62;11.03;;;;;;;8.62;85.75;100679.48;1831797;78;20975;-87
2022/09/22 04:54:20;;;;;;;18.15;12.00;;;;;;;8.80;85.54;100684.69;1831491;78;20955;-86
2022/09/22 04:56:48;;;;;;;14.87;11.78;;;;;;;8.94;85.17;100686.15;1831586;78;21263;-87
2022/09/22 04:59:14;;;;;;;14.50;12.00;;;;;;;9.08;84.79;100694.58;1792241;80;21404;-87
2022/09/22 05:01:42;;;;;;;19.12;12.20;;;;;;;9.23;84.52;100697.69;1831912;78;20919;-87
2022/09/22 05:04:08;;;;;;;16.42;11.63;;;;;;;9.36;84.22;100699.64;1832235;77;21009;-86
2022/09/22 05:06:36;;;;;;;21.30;11.95;;;;;;;9.49;83.87;100700.66;1761963;80;20877;-86
2022/09/22 05:09:03;;;;;;;20.95;12.50;;;;;;;9.61;83.68;100701.32;1817549;78;21283;-86
2022/09/22 05:11:30;;;;;;;15.08;12.07;;;;;;;9.73;83.56;100698.02;1792249;80;20887;-86
2022/09/22 05:16:36;;;;;;;15.08;11.95;;;;;;;9.96;83.33;100691.98;1735768;82;21019;-87
2022/09/22 05:19:03;;;;;;;23.45;13.83;;;;;;;10.08;83.21;100688.66;1737619;82;20955;-87
2022/09/22 05:21:30;;;;;;;18.95;13.30;;;;;;;10.21;83.21;100691.91;1737400;82;21200;-86
2022/09/22 05:23:57;;;;;;;27.30;16.48;;;;;;;10.31;83.12;100694.38;1737777;82;20900;-88
2022/09/22 05:26:24;;;;;;;23.45;15.80;;;;;;;10.41;82.85;100694.23;1739435;82;20991;-86
2022/09/22 05:28:51;;;;;;;22.32;16.75;;;;;;;10.48;82.55;100694.25;1740191;82;20999;-85
2022/09/22 05:31:18;;;;;;;26.07;17.95;;;;;;;10.56;82.37;100705.15;1743712;82;20888;-86
2022/09/22 05:33:45;;;;;;;24.60;17.05;;;;;;;10.66;82.33;100703.29;1750636;82;21139;-87
2022/09/22 05:36:12;;;;;;;39.18;25.72;;;;;;;10.72;82.36;100704.25;1750566;82;21945;-86
2022/09/22 05:38:39;;;;;;;41.20;26.12;;;;;;;10.81;82.70;100705.01;1750722;82;21413;-87
2022/09/22 05:41:05;;;;;;;32.98;22.82;;;;;;;10.94;83.01;100708.59;1750578;82;20991;-88
2022/09/22 05:43:32;;;;;;;37.03;23.85;;;;;;;11.09;82.85;100708.58;1750675;82;21042;-87
2022/09/22 05:45:59;;;;;;;33.63;24.45;;;;;;;11.22;82.82;100706.89;1750454;82;21234;-87
2022/09/22 05:48:26;;;;;;;33.18;22.87;;;;;;;11.38;82.51;100713.35;1805504;79;21358;-87
2022/09/22 05:50:53;;;;;;;37.65;22.58;;;;;;;11.51;82.18;100717.38;1814353;79;20936;-87
2022/09/22 05:53:20;;;;;;;29.98;21.25;;;;;;;11.61;81.82;100720.66;1814370;79;20923;-88
2022/09/22 05:55:46;;;;;;;21.45;17.48;;;;;;;11.72;81.58;100716.52;1814355;79;20860;-86
2022/09/22 05:58:13;;;;;;;22.48;17.92;;;;;;;11.79;81.15;100712.56;1773518;81;21296;-88
2022/09/22 06:00:41;;;;;;;24.37;19.32;;;;;;;11.85;80.95;100720.06;1751413;82;20948;-86
2022/09/22 06:03:07;;;;;;;24.43;19.10;;;;;;;11.91;80.86;100710.48;1751870;82;20900;-87
2022/09/22 06:05:34;;;;;;;26.82;21.48;;;;;;;11.98;80.33;100710.48;1752093;82;21023;-87
2022/09/22 06:08:05;;;;;;;25.97;20.35;;;;;;;11.98;80.22;100709.61;1751108;82;20979;-87
2022/09/22 06:10:35;;;;;;;24.90;19.55;;;;;;;12.03;80.35;100714.13;1751856;82;21241;-86
2022/09/22 06:13:05;;;;;;;25.30;17.67;;;;;;;12.10;80.18;100714.57;1751899;82;20931;-86
2022/09/22 06:15:34;;;;;;;27.25;19.90;;;;;;;12.20;80.03;100713.84;1724588;82;20990;-86
2022/09/22 06:18:07;;;;;;;25.82;20.45;;;;;;;12.28;79.90;100710.73;1751876;82;20920;-86
2022/09/22 06:20:34;;;;;;;30.15;21.57;;;;;;;12.36;79.62;100716.34;1752200;82;20944;-88
2022/09/22 06:23:01;;;;;;;24.95;20.17;;;;;;;12.47;79.28;100725.28;1752147;82;21164;-88
2022/09/22 06:25:28;;;;;;;25.45;20.25;;;;;;;12.55;79.05;100725.63;1752230;81;20967;-87
2022/09/22 06:28:03;;;;;;;25.72;20.50;;;;;;;12.61;78.94;100719.48;1724786;82;20963;-88
2022/09/22 06:30:33;;;;;;;27.37;19.40;;;;;;;12.71;78.78;100722.33;1752866;79;20869;-87
2022/09/22 06:32:59;;;;;;;25.27;19.85;;;;;;;12.79;78.38;100717.88;1795921;80;20931;-86
2022/09/22 06:35:31;;;;;;;26.00;18.87;;;;;;;12.83;78.04;100720.20;1815107;79;21206;-86
2022/09/22 06:37:56;;;;;;;22.70;18.00;;;;;;;12.88;77.80;100725.63;1814698;79;20967;-87
2022/09/22 06:40:24;;;;;;;19.40;16.12;;;;;;;12.93;77.74;100723.52;1815172;79;20912;-87
2022/09/22 06:42:56;;;;;;;19.12;16.23;;;;;;;13.00;77.69;100719.52;1815643;79;20876;-88
2022/09/22 06:45:25;;;;;;;17.80;15.18;;;;;;;13.11;77.64;100719.61;1798748;79;21025;-87
2022/09/22 06:47:57;;;;;;;20.60;17.60;;;;;;;13.24;77.51;100720.93;1817330;78;22106;-88
2022/09/22 06:50:25;;;;;;;19.05;16.10;;;;;;;13.35;77.26;100715.79;1815231;79;21428;-87
2022/09/22 06:52:59;;;;;;;18.90;14.98;;;;;;;13.44;76.99;100714.30;1815071;79;20944;-88
2022/09/22 06:55:30;;;;;;;17.12;13.83;;;;;;;13.50;76.68;100710.41;1815280;79;21357;-89
2022/09/22 06:58:01;;;;;;;18.85;14.87;;;;;;;13.52;76.32;100713.30;1795820;80;21464;-87
2022/09/22 07:00:32;;;;;;;15.23;13.20;;;;;;;13.54;75.96;100711.84;1813765;79;21165;-87
2022/09/22 07:03:08;;;;;;;15.68;13.30;;;;;;;13.54;75.83;100711.84;1815295;79;20912;-88
2022/09/22 07:05:36;;;;;;;17.23;14.20;;;;;;;13.60;75.88;100720.64;1815469;79;20959;-87
2022/09/22 07:08:07;;;;;;;17.92;13.50;;;;;;;13.67;75.68;100719.24;1796278;80;20909;-87
2022/09/22 07:10:36;;;;;;;14.23;12.73;;;;;;;13.70;74.78;100723.48;1815623;79;20884;-89
2022/09/22 07:13:04;;;;;;;14.13;12.73;;;;;;;13.70;74.78;100723.48;1815286;79;21325;-90
2022/09/22 07:15:33;;;;;;;14.45;12.73;;;;;;;13.72;74.53;100726.37;1815188;79;20978;-90
2022/09/22 07:18:02;;;;;;;14.35;12.85;;;;;;;13.81;74.78;100724.87;1815528;79;20864;-90
2022/09/22 07:20:34;;;;;;;14.93;13.38;;;;;;;13.89;74.80;100724.69;1796058;80;20876;-88
2022/09/22 07:23:00;;;;;;;16.73;14.87;;;;;;;13.98;74.62;100731.05;1815651;79;20876;-89
2022/09/22 07:25:27;;;;;;;15.72;13.20;;;;;;;14.13;73.85;100718.56;1815574;79;21904;-89
2022/09/22 07:27:57;;;;;;;15.50;13.70;;;;;;;14.13;73.85;100718.56;1815570;79;20892;-90
2022/09/22 07:30:25;;;;;;;19.15;15.63;;;;;;;14.22;73.90;100715.72;1815435;79;20963;-90
2022/09/22 07:32:51;;;;;;;18.42;15.58;;;;;;;14.29;73.45;100714.31;1744581;80;21094;-92
2022/09/22 07:35:20;;;;;;;19.87;17.17;;;;;;;14.37;73.11;100714.59;1769218;80;20889;-90
2022/09/22 07:37:49;;;;;;;19.23;17.17;;;;;;;14.44;72.93;100721.09;1774189;81;21234;-89
2022/09/22 07:40:16;;;;;;;22.75;19.05;;;;;;;14.54;72.76;100716.44;1701723;82;20931;-87
2022/09/22 07:42:48;;;;;;;22.52;20.23;;;;;;;14.54;72.14;100719.94;1752407;82;20912;-89
2022/09/22 07:45:15;;;;;;;31.68;21.90;;;;;;;14.53;72.03;100719.56;1752365;82;20991;-91
2022/09/22 07:50:32;;;;;;;22.75;20.35;;;;;;;14.62;71.92;100718.89;1752271;82;21265;-89
2022/09/22 07:53:02;;;;;;;22.00;19.70;;;;;;;14.71;71.62;100723.96;1752068;82;20900;-88
2022/09/22 07:55:29;;;;;;;20.50;18.40;;;;;;;14.85;71.19;100720.27;1751352;82;20936;-89
2022/09/22 07:57:59;;;;;;;17.82;16.25;;;;;;;15.31;70.72;100720.19;1725873;82;20924;-90
2022/09/22 08:00:31;;;;;;;32.93;24.85;;;;;;;15.78;69.78;100724.02;1752540;82;21473;-88
2022/09/22 08:03:07;;;;;;;20.62;18.48;;;;;;;16.24;67.85;100720.29;1753313;82;21165;-89
2022/09/22 08:05:31;;;;;;;19.48;17.45;;;;;;;16.52;66.38;100714.05;1752404;79;21058;-87
2022/09/22 08:08:01;;;;;;;20.17;17.37;;;;;;;16.81;64.81;100716.92;1753475;82;21007;-88
2022/09/22 08:10:28;;;;;;;16.17;14.63;;;;;;;17.12;63.30;100708.97;1752454;82;20963;-88
2022/09/22 08:12:56;;;;;;;16.17;14.07;;;;;;;17.48;62.14;100704.95;1751887;82;20916;-89
2022/09/22 08:15:25;;;;;;;14.80;13.43;;;;;;;18.05;61.80;100701.73;1752053;81;21243;-89
2022/09/22 08:18:01;;;;;;;16.35;14.73;;;;;;;18.75;60.68;100699.75;1751838;82;21050;-89
2022/09/22 08:20:27;;;;;;;13.98;12.63;;;;;;;19.49;58.43;100700.77;1751946;82;21420;-88
2022/09/22 08:23:00;;;;;;;15.53;13.98;;;;;;;20.11;56.36;100696.47;1752105;82;20868;-89
2022/09/22 08:25:26;;;;;;;12.73;11.40;;;;;;;20.49;54.19;100689.95;1752102;81;21423;-89
2022/09/22 08:27:53;;;;;;;11.45;10.35;;;;;;;20.85;52.38;100692.59;1751703;82;21276;-89
2022/09/22 08:30:19;;;;;;;13.00;11.70;;;;;;;21.27;51.55;100685.63;1751677;82;21342;-88
2022/09/22 08:32:46;;;;;;;11.78;10.55;;;;;;;21.78;50.33;100683.81;1795546;79;20943;-88
2022/09/22 08:35:13;;;;;;;9.18;8.38;;;;;;;22.28;48.38;100675.41;1795850;80;21030;-88
2022/09/22 08:37:41;;;;;;;8.70;7.83;;;;;;;22.52;47.08;100676.73;1815343;79;20907;-89
2022/09/22 08:40:19;;;;;;;40.08;32.67;;;;;;;22.93;46.19;100670.46;1815342;79;21242;-88
2022/09/22 08:42:46;;;;;;;13.10;11.68;;;;;;;23.21;45.13;100667.37;1815025;79;20904;-88
2022/09/22 08:45:34;;;;;;;7.62;6.72;;;;;;;23.40;43.95;100671.48;1815262;79;20904;-89
2022/09/22 08:53:44;;;;;;;7.65;6.90;;;;;;;24.10;42.64;100663.86;1816212;79;21150;-86
2022/09/22 08:56:22;;;;;;;8.08;7.08;;;;;;;24.32;41.87;100654.14;1815007;79;20841;-86
2022/09/22 08:59:09;;;;;;;8.93;6.87;;;;;;;24.37;41.67;100651.25;1814955;79;20880;-87
2022/09/22 09:01:53;;;;;;;7.22;6.55;;;;;;;24.57;41.43;100648.92;1815135;79;20923;-87
2022/09/22 09:04:45;;;;;;;14.83;7.45;;;;;;;24.91;40.95;100654.77;1815178;79;20923;-86
2022/09/22 09:07:42;;;;;;;6.72;6.20;;;;;;;25.36;40.27;100655.05;1815291;79;21440;-89
2022/09/22 09:10:39;;;;;;;7.95;6.85;;;;;;;25.43;39.03;100654.65;1815226;79;20889;-89
2022/09/22 09:13:35;;;;;;;7.78;7.08;;;;;;;25.54;39.25;100650.61;1784713;80;20987;-89
2022/09/22 09:16:50;;;;;;;7.37;6.78;;;;;;;25.98;38.49;100649.66;1733470;82;21081;-85
2022/09/22 09:19:42;;;;;;;7.20;6.60;;;;;;;26.41;37.50;100646.08;1784972;80;21404;-86
2022/09/22 09:22:24;;;;;;;6.58;6.03;;;;;;;26.75;37.09;100646.67;1764591;81;21162;-87
2022/09/22 09:25:04;;;;;;;7.37;6.78;;;;;;;26.99;36.94;100643.16;1787833;80;20931;-87
2022/09/22 09:27:35;;;;;;;7.00;6.50;;;;;;;27.25;35.89;100645.18;1762317;80;20863;-87
2022/09/22 09:30:10;;;;;;;6.62;6.10;;;;;;;27.33;35.20;100642.84;1784612;80;21627;-86
2022/09/22 09:32:51;;;;;;;7.25;6.65;;;;;;;27.24;35.12;100642.19;1758672;81;20911;-88
2022/09/22 09:35:31;;;;;;;6.83;6.12;;;;;;;27.27;35.25;100637.73;1767785;81;21428;-86
2022/09/22 09:37:57;;;;;;;5.85;5.45;;;;;;;27.33;34.73;100636.11;1767181;81;20949;-87
2022/09/22 09:40:24;;;;;;;5.40;5.00;;;;;;;27.34;34.69;100642.62;1742446;81;20921;-88
2022/09/22 09:43:03;;;;;;;8.95;8.00;;;;;;;27.24;34.42;100643.02;1767637;81;21474;-87
2022/09/22 09:45:45;;;;;;;8.38;5.55;;;;;;;27.21;34.62;100646.61;1767873;81;20944;-87
2022/09/22 09:48:20;;;;;;;10.32;6.37;;;;;;;27.29;33.91;100652.66;1760028;80;21345;-89
2022/09/22 09:50:49;;;;;;;4.62;4.33;;;;;;;27.38;34.26;100653.83;1816908;78;20979;-86
2022/09/22 09:53:33;;;;;;;4.90;4.50;;;;;;;27.65;33.54;100650.17;1826162;78;20887;-88
2022/09/22 09:56:00;;;;;;;6.67;4.75;;;;;;;27.95;32.76;100649.86;1791827;79;20869;-88
2022/09/22 10:01:13;;;;;;;3.10;2.83;;;;;;;28.32;33.20;100654.31;1817040;78;21124;-86
2022/09/22 10:03:53;;;;;;;3.80;3.20;;;;;;;28.53;32.17;100650.61;1816964;78;20879;-85
2022/09/22 10:06:13;;;;;;;3.47;2.87;;;;;;;28.71;32.06;100649.42;1814560;78;20954;-90
2022/09/22 10:08:45;;;;;;;3.17;2.65;;;;;;;28.70;31.58;100642.88;1817312;79;20963;-85
2022/09/22 10:11:13;;;;;;;2.10;1.90;;;;;;;28.80;31.54;100645.98;1817009;78;21596;-87
2022/09/22 10:13:42;;;;;;;2.72;2.52;;;;;;;28.99;30.68;100645.59;1816712;79;21282;-87
2022/09/22 10:16:29;;;;;;;2.25;2.15;;;;;;;29.17;30.59;100632.81;1816791;78;20936;-86
2022/09/22 10:19:28;;;;;;;2.27;2.17;;;;;;;29.17;29.84;100632.81;1831195;78;20906;-86
2022/09/22 10:22:23;;;;;;;2.20;2.00;;;;;;;29.16;30.41;100632.48;1831259;78;20954;-87
2022/09/22 10:25:01;;;;;;;2.37;2.27;;;;;;;29.38;29.97;100625.44;1791865;79;21326;-87
2022/09/22 10:27:30;;;;;;;2.30;2.17;;;;;;;29.51;29.82;100619.95;1816823;78;21801;-87
2022/09/22 10:30:18;;;;;;;2.00;1.90;;;;;;;29.66;29.32;100620.98;1814055;78;20948;-87
2022/09/22 10:33:16;;;;;;;2.52;2.33;;;;;;;29.77;29.44;100624.41;1827373;78;21451;-89
2022/09/22 10:36:09;;;;;;;2.80;2.65;;;;;;;29.70;29.24;100625.80;1831559;78;21474;-87
2022/09/22 10:38:43;;;;;;;2.85;2.65;;;;;;;29.70;29.23;100630.35;1792494;80;20982;-88
2022/09/22 10:41:28;;;;;;;2.30;2.20;;;;;;;29.65;28.91;100627.45;1817793;78;21169;-88
2022/09/22 10:44:15;;;;;;;2.05;1.95;;;;;;;29.52;29.22;100626.47;1819553;78;20963;-87
2022/09/22 10:47:15;;;;;;;2.90;2.70;;;;;;;29.52;29.27;100621.59;1832345;78;20982;-88
2022/09/22 10:50:05;;;;;;;2.33;2.22;;;;;;;29.10;29.09;100626.59;1799434;78;20994;-89
2022/09/22 10:52:55;;;;;;;2.60;2.40;;;;;;;28.49;29.89;100620.50;1831722;78;20985;-89
2022/09/22 10:55:33;;;;;;;3.05;2.80;;;;;;;28.21;30.47;100623.92;1831239;77;21818;-87
2022/09/22 10:58:08;;;;;;;3.58;3.27;;;;;;;27.84;30.87;100618.09;1831909;78;20907;-87
2022/09/22 11:02:54;;;;;;;9.60;8.70;;;;;;;27.40;31.69;100609.50;1855137;76;23888;-87
2022/09/22 11:15:17;;;;;;;1.70;1.60;;;;;;;25.02;34.59;100614.05;1821665;78;20979;-89
2022/09/22 11:17:56;;;;;;;2.22;2.02;;;;;;;24.84;34.59;100600.19;1791030;78;20931;-88
2022/09/22 11:20:42;;;;;;;19.80;18.15;;;;;;;24.63;35.42;100596.90;1822446;78;20978;-88
2022/09/22 11:23:31;;;;;;;3.27;2.98;;;;;;;24.50;35.59;100601.06;1823094;78;20832;-88
2022/09/22 11:26:29;;;;;;;7.30;6.65;;;;;;;24.35;35.94;100591.62;1823050;78;20903;-87
2022/09/22 11:29:11;;;;;;;2.42;2.22;;;;;;;24.20;36.29;100591.59;1823642;78;20904;-88
2022/09/22 11:32:33;;;;;;;2.85;1.70;;;;;;;23.99;36.24;100580.76;1822272;78;20919;-89
2022/09/22 11:35:28;;;;;;;2.90;2.62;;;;;;;23.85;36.59;100581.53;1822865;78;20911;-88
2022/09/22 11:38:18;;;;;;;7.40;3.42;;;;;;;23.66;37.16;100593.03;1822834;78;21747;-89
2022/09/22 11:41:15;;;;;;;2.67;1.95;;;;;;;23.48;37.39;100586.63;1822950;78;20884;-91
2022/09/22 11:44:10;;;;;;;1.42;1.32;;;;;;;23.41;37.14;100585.67;1823240;78;20915;-90
2022/09/22 11:47:14;;;;;;;2.45;1.47;;;;;;;23.40;37.56;100583.99;1822803;78;20930;-88
2022/09/22 11:50:07;;;;;;;12.70;1.98;;;;;;;23.24;37.38;100587.60;1823036;78;20982;-88
2022/09/22 11:53:25;;;;;;;1.72;1.30;;;;;;;22.93;37.35;100585.70;1822528;78;21156;-87
2022/09/22 11:56:00;;;;;;;1.32;1.20;;;;;;;22.69;38.40;100582.61;1822851;78;20947;-90
2022/09/22 11:58:30;;;;;;;1.42;1.27;;;;;;;22.49;38.45;100582.68;1822434;78;20922;-87
2022/09/22 12:01:10;;;;;;;1.30;1.20;;;;;;;22.26;39.17;100571.38;1823986;78;20931;-89
2022/09/22 12:03:43;;;;;;;1.80;1.70;;;;;;;21.99;39.13;100577.03;1829030;78;20867;-88
2022/09/22 12:06:20;;;;;;;1.70;1.60;;;;;;;21.67;39.56;100574.69;1827164;78;21145;-88
2022/09/22 12:08:54;;;;;;;1.32;1.22;;;;;;;21.49;40.03;100594.34;1824580;78;20903;-88
2022/09/22 12:11:21;;;;;;;3.20;1.65;;;;;;;21.36;40.45;100593.95;1826119;78;20896;-89
2022/09/22 12:13:52;;;;;;;2.25;1.32;;;;;;;21.28;41.35;100588.61;1825464;78;21419;-89
2022/09/22 12:16:38;;;;;;;1.72;1.62;;;;;;;21.23;41.42;100586.44;1825033;78;20895;-89
2022/09/22 12:19:28;;;;;;;1.65;1.55;;;;;;;21.17;41.96;100593.75;1825134;78;21479;-89
2022/09/22 12:22:12;;;;;;;1.67;1.57;;;;;;;21.09;42.49;100601.20;1824176;78;20892;-87